sensor_id;sensor_type;location;lat;lon;timestamp;pressure;altitude;pressure_sealevel;temperature;humidity
30021;BME280;16861;52.294;7.760;2023-05-02T00:00:52;99977.59;;;15.36;49.84
30021;BME280;16861;52.294;7.760;2023-05-02T00:03:20;99981.41;;;15.32;50.05
30021;BME280;16861;52.294;7.760;2023-05-02T00:05:47;99976.38;;;15.29;50.27
30021;BME280;16861;52.294;7.760;2023-05-02T00:08:14;99974.78;;;15.26;50.45
30021;BME280;16861;52.294;7.760;2023-05-02T00:10:41;99973.06;;;15.25;50.45
30021;BME280;16861;52.294;7.760;2023-05-02T00:13:09;99974.16;;;15.22;50.93
30021;BME280;16861;52.294;7.760;2023-05-02T00:15:36;99962.81;;;15.20;50.74
30021;BME280;16861;52.294;7.760;2023-05-02T00:18:02;99969.09;;;15.19;50.84
30021;BME280;16861;52.294;7.760;2023-05-02T00:20:29;99973.75;;;15.16;50.79
30021;BME280;16861;52.294;7.760;2023-05-02T00:22:55;99974.72;;;15.15;51.11
30021;BME280;16861;52.294;7.760;2023-05-02T00:25:22;99976.75;;;15.11;51.16
30021;BME280;16861;52.294;7.760;2023-05-02T00:27:49;99975.19;;;15.08;51.18
30021;BME280;16861;52.294;7.760;2023-05-02T00:30:17;99971.88;;;15.05;51.26
30021;BME280;16861;52.294;7.760;2023-05-02T00:32:44;99980.81;;;15.04;51.55
30021;BME280;16861;52.294;7.760;2023-05-02T00:35:10;99979.94;;;15.03;51.58
30021;BME280;16861;52.294;7.760;2023-05-02T00:37:37;99979.22;;;15.01;51.61
30021;BME280;16861;52.294;7.760;2023-05-02T00:40:05;99982.84;;;15.00;51.95
30021;BME280;16861;52.294;7.760;2023-05-02T00:42:33;99987.28;;;15.00;52.07
30021;BME280;16861;52.294;7.760;2023-05-02T00:45:03;99987.38;;;14.98;52.34
30021;BME280;16861;52.294;7.760;2023-05-02T00:47:31;99988.44;;;14.95;52.25
30021;BME280;16861;52.294;7.760;2023-05-02T00:49:58;99993.88;;;14.94;52.27
30021;BME280;16861;52.294;7.760;2023-05-02T00:52:27;99999.28;;;14.92;52.47
30021;BME280;16861;52.294;7.760;2023-05-02T00:54:54;99996.75;;;14.91;52.52
30021;BME280;16861;52.294;7.760;2023-05-02T00:57:21;99991.56;;;14.89;52.65
30021;BME280;16861;52.294;7.760;2023-05-02T00:59:48;99987.94;;;14.90;53.15
30021;BME280;16861;52.294;7.760;2023-05-02T01:02:25;99989.84;;;14.88;54.07
30021;BME280;16861;52.294;7.760;2023-05-02T01:08:09;99990.81;;;14.87;54.51
30021;BME280;16861;52.294;7.760;2023-05-02T01:10:48;99987.19;;;14.88;54.26
30021;BME280;16861;52.294;7.760;2023-05-02T01:13:25;99991.66;;;14.88;53.69
30021;BME280;16861;52.294;7.760;2023-05-02T01:15:55;99998.75;;;14.87;53.10
30021;BME280;16861;52.294;7.760;2023-05-02T01:18:25;99995.38;;;14.85;53.31
30021;BME280;16861;52.294;7.760;2023-05-02T01:20:59;99993.91;;;14.81;53.94
30021;BME280;16861;52.294;7.760;2023-05-02T01:26:14;99991.03;;;14.84;52.25
30021;BME280;16861;52.294;7.760;2023-05-02T01:31:14;99994.13;;;14.78;52.94
30021;BME280;16861;52.294;7.760;2023-05-02T01:33:43;99996.94;;;14.75;53.50
30021;BME280;16861;52.294;7.760;2023-05-02T01:36:13;99994.53;;;14.71;53.50
30021;BME280;16861;52.294;7.760;2023-05-02T01:38:42;99993.78;;;14.69;53.45
30021;BME280;16861;52.294;7.760;2023-05-02T01:41:10;99998.34;;;14.67;53.53
30021;BME280;16861;52.294;7.760;2023-05-02T01:43:38;99998.34;;;14.67;53.37
30021;BME280;16861;52.294;7.760;2023-05-02T01:46:07;100003.75;;;14.66;53.58
30021;BME280;16861;52.294;7.760;2023-05-02T01:48:35;100008.28;;;14.64;53.58
30021;BME280;16861;52.294;7.760;2023-05-02T01:51:04;100015.53;;;14.62;54.14
30021;BME280;16861;52.294;7.760;2023-05-02T01:53:33;100011.09;;;14.62;53.85
30021;BME280;16861;52.294;7.760;2023-05-02T01:56:01;100015.63;;;14.60;53.87
30021;BME280;16861;52.294;7.760;2023-05-02T01:58:29;100021.13;;;14.57;53.90
30021;BME280;16861;52.294;7.760;2023-05-02T02:00:58;100019.53;;;14.54;54.39
30021;BME280;16861;52.294;7.760;2023-05-02T02:03:28;100023.25;;;14.52;55.11
30021;BME280;16861;52.294;7.760;2023-05-02T02:05:57;100022.28;;;14.53;54.40
30021;BME280;16861;52.294;7.760;2023-05-02T02:08:24;100033.75;;;14.53;54.43
30021;BME280;16861;52.294;7.760;2023-05-02T02:10:56;100029.63;;;14.49;55.38
30021;BME280;16861;52.294;7.760;2023-05-02T02:13:27;100034.81;;;14.51;54.99
30021;BME280;16861;52.294;7.760;2023-05-02T02:15:59;100037.56;;;14.49;55.00
30021;BME280;16861;52.294;7.760;2023-05-02T02:18:28;100037.56;;;14.49;54.69
30021;BME280;16861;52.294;7.760;2023-05-02T02:20:58;100042.00;;;14.49;54.79
30021;BME280;16861;52.294;7.760;2023-05-02T02:23:27;100041.28;;;14.46;55.14
30021;BME280;16861;52.294;7.760;2023-05-02T02:25:55;100045.72;;;14.46;55.01
30021;BME280;16861;52.294;7.760;2023-05-02T02:28:22;100045.81;;;14.44;54.97
30021;BME280;16861;52.294;7.760;2023-05-02T02:30:49;100038.94;;;14.42;55.14
30021;BME280;16861;52.294;7.760;2023-05-02T02:33:16;100051.44;;;14.40;55.37
30021;BME280;16861;52.294;7.760;2023-05-02T02:35:48;100051.75;;;14.35;56.44
30021;BME280;16861;52.294;7.760;2023-05-02T02:39:01;100048.56;;;14.30;56.54
30021;BME280;16861;52.294;7.760;2023-05-02T02:41:41;100057.47;;;14.29;56.95
30021;BME280;16861;52.294;7.760;2023-05-02T02:46:59;100058.44;;;14.28;57.00
30021;BME280;16861;52.294;7.760;2023-05-02T02:49:42;100055.13;;;14.24;58.05
30021;BME280;16861;52.294;7.760;2023-05-02T02:52:23;100064.88;;;14.24;57.61
30021;BME280;16861;52.294;7.760;2023-05-02T02:54:58;100064.13;;;14.22;57.57
30021;BME280;16861;52.294;7.760;2023-05-02T03:00:45;100075.78;;;14.19;56.37
30021;BME280;16861;52.294;7.760;2023-05-02T03:03:13;100069.75;;;14.17;56.54
30021;BME280;16861;52.294;7.760;2023-05-02T03:05:42;100068.16;;;14.14;57.26
30021;BME280;16861;52.294;7.760;2023-05-02T03:08:09;100080.53;;;14.14;56.96
30021;BME280;16861;52.294;7.760;2023-05-02T03:10:36;100076.19;;;14.13;56.85
30021;BME280;16861;52.294;7.760;2023-05-02T03:13:02;100083.28;;;14.12;57.31
30021;BME280;16861;52.294;7.760;2023-05-02T03:18:15;100090.34;;;14.12;57.14
30021;BME280;16861;52.294;7.760;2023-05-02T03:20:42;100094.72;;;14.13;57.35
30021;BME280;16861;52.294;7.760;2023-05-02T03:23:09;100094.63;;;14.14;57.60
30021;BME280;16861;52.294;7.760;2023-05-02T03:25:35;100100.66;;;14.16;57.59
30021;BME280;16861;52.294;7.760;2023-05-02T03:28:02;100103.31;;;14.16;57.77
30021;BME280;16861;52.294;7.760;2023-05-02T03:30:29;100107.53;;;14.19;57.58
30021;BME280;16861;52.294;7.760;2023-05-02T03:32:55;100108.41;;;14.19;57.58
30021;BME280;16861;52.294;7.760;2023-05-02T03:35:22;100114.44;;;14.22;57.45
30021;BME280;16861;52.294;7.760;2023-05-02T03:37:52;100119.72;;;14.22;57.35
30021;BME280;16861;52.294;7.760;2023-05-02T03:40:18;100123.22;;;14.22;57.38
30021;BME280;16861;52.294;7.760;2023-05-02T03:42:47;100121.53;;;14.21;57.17
30021;BME280;16861;52.294;7.760;2023-05-02T03:45:14;100121.72;;;14.18;57.09
30021;BME280;16861;52.294;7.760;2023-05-02T03:47:41;100133.28;;;14.17;57.04
30021;BME280;16861;52.294;7.760;2023-05-02T03:50:09;100137.91;;;14.13;57.08
30021;BME280;16861;52.294;7.760;2023-05-02T03:52:35;100139.81;;;14.11;56.93
30021;BME280;16861;52.294;7.760;2023-05-02T03:55:03;100142.56;;;14.10;56.97
30021;BME280;16861;52.294;7.760;2023-05-02T03:57:31;100147.22;;;14.06;57.08
30021;BME280;16861;52.294;7.760;2023-05-02T03:59:57;100148.28;;;14.03;56.86
30021;BME280;16861;52.294;7.760;2023-05-02T04:02:24;100152.81;;;14.01;56.98
30021;BME280;16861;52.294;7.760;2023-05-02T04:04:51;100152.16;;;13.98;56.87
30021;BME280;16861;52.294;7.760;2023-05-02T04:07:18;100159.44;;;13.94;56.50
30021;BME280;16861;52.294;7.760;2023-05-02T04:09:45;100169.38;;;13.90;56.56
30021;BME280;16861;52.294;7.760;2023-05-02T04:12:14;100172.34;;;13.86;56.85
30021;BME280;16861;52.294;7.760;2023-05-02T04:14:40;100174.31;;;13.82;56.17
30021;BME280;16861;52.294;7.760;2023-05-02T04:17:07;100176.31;;;13.78;56.13
30021;BME280;16861;52.294;7.760;2023-05-02T04:19:34;100185.41;;;13.74;56.19
30021;BME280;16861;52.294;7.760;2023-05-02T04:22:01;100180.38;;;13.70;56.30
30021;BME280;16861;52.294;7.760;2023-05-02T04:24:28;100177.00;;;13.67;56.29
30021;BME280;16861;52.294;7.760;2023-05-02T04:26:55;100176.13;;;13.67;56.36
30021;BME280;16861;52.294;7.760;2023-05-02T04:29:22;100188.53;;;13.66;56.11
30021;BME280;16861;52.294;7.760;2023-05-02T04:31:48;100190.22;;;13.67;56.11
30021;BME280;16861;52.294;7.760;2023-05-02T04:34:16;100192.88;;;13.67;55.99
30021;BME280;16861;52.294;7.760;2023-05-02T04:36:45;100207.06;;;13.66;56.43
30021;BME280;16861;52.294;7.760;2023-05-02T04:39:12;100203.47;;;13.67;55.76
30021;BME280;16861;52.294;7.760;2023-05-02T04:41:39;100208.75;;;13.67;55.90
30021;BME280;16861;52.294;7.760;2023-05-02T04:44:06;100213.19;;;13.67;55.98
30021;BME280;16861;52.294;7.760;2023-05-02T04:46:32;100214.88;;;13.68;56.00
30021;BME280;16861;52.294;7.760;2023-05-02T04:48:59;100219.31;;;13.67;55.97
30021;BME280;16861;52.294;7.760;2023-05-02T04:51:25;100228.97;;;13.68;56.13
30021;BME280;16861;52.294;7.760;2023-05-02T04:53:54;100228.09;;;13.68;56.25
30021;BME280;16861;52.294;7.760;2023-05-02T04:56:20;100236.91;;;13.68;56.18
30021;BME280;16861;52.294;7.760;2023-05-02T04:58:47;100243.97;;;13.68;56.17
30021;BME280;16861;52.294;7.760;2023-05-02T05:01:13;100248.53;;;13.66;56.20
30021;BME280;16861;52.294;7.760;2023-05-02T05:03:40;100256.53;;;13.64;56.34
30021;BME280;16861;52.294;7.760;2023-05-02T05:06:07;100271.69;;;13.62;56.48
30021;BME280;16861;52.294;7.760;2023-05-02T05:08:33;100270.16;;;13.58;56.44
30021;BME280;16861;52.294;7.760;2023-05-02T05:11:00;100280.91;;;13.55;56.40
30021;BME280;16861;52.294;7.760;2023-05-02T05:13:27;100283.00;;;13.50;56.08
30021;BME280;16861;52.294;7.760;2023-05-02T05:15:53;100289.56;;;13.42;55.72
30021;BME280;16861;52.294;7.760;2023-05-02T05:18:20;100299.75;;;13.34;55.71
30021;BME280;16861;52.294;7.760;2023-05-02T05:20:46;100300.31;;;13.25;55.54
30021;BME280;16861;52.294;7.760;2023-05-02T05:23:13;100297.34;;;13.15;55.71
30021;BME280;16861;52.294;7.760;2023-05-02T05:25:39;100311.03;;;13.07;55.77
30021;BME280;16861;52.294;7.760;2023-05-02T05:28:08;100310.63;;;12.99;55.78
30021;BME280;16861;52.294;7.760;2023-05-02T05:30:35;100316.28;;;12.93;55.92
30021;BME280;16861;52.294;7.760;2023-05-02T05:33:01;100321.91;;;12.86;56.03
30021;BME280;16861;52.294;7.760;2023-05-02T05:35:28;100325.66;;;12.82;55.89
30021;BME280;16861;52.294;7.760;2023-05-02T05:37:54;100333.88;;;12.77;56.18
30021;BME280;16861;52.294;7.760;2023-05-02T05:40:21;100338.44;;;12.74;56.02
30021;BME280;16861;52.294;7.760;2023-05-02T05:42:48;100339.47;;;12.71;56.11
30021;BME280;16861;52.294;7.760;2023-05-02T05:45:15;100349.38;;;12.68;56.04
30021;BME280;16861;52.294;7.760;2023-05-02T05:47:42;100346.91;;;12.64;56.23
30021;BME280;16861;52.294;7.760;2023-05-02T05:50:09;100355.94;;;12.60;56.24
30021;BME280;16861;52.294;7.760;2023-05-02T05:52:36;100363.94;;;12.59;56.35
30021;BME280;16861;52.294;7.760;2023-05-02T05:55:03;100361.50;;;12.56;56.33
30021;BME280;16861;52.294;7.760;2023-05-02T05:57:29;100371.25;;;12.54;56.36
30021;BME280;16861;52.294;7.760;2023-05-02T05:59:56;100384.53;;;12.52;55.97
30021;BME280;16861;52.294;7.760;2023-05-02T06:02:22;100379.53;;;12.47;55.75
30021;BME280;16861;52.294;7.760;2023-05-02T06:04:49;100383.38;;;12.42;55.91
30021;BME280;16861;52.294;7.760;2023-05-02T06:07:16;100389.91;;;12.34;55.54
30021;BME280;16861;52.294;7.760;2023-05-02T06:09:42;100389.38;;;12.28;55.63
30021;BME280;16861;52.294;7.760;2023-05-02T06:12:08;100402.84;;;12.23;55.71
30021;BME280;16861;52.294;7.760;2023-05-02T06:14:35;100407.53;;;12.18;55.83
30021;BME280;16861;52.294;7.760;2023-05-02T06:17:01;100406.06;;;12.12;55.92
30021;BME280;16861;52.294;7.760;2023-05-02T06:19:28;100408.00;;;12.08;56.04
30021;BME280;16861;52.294;7.760;2023-05-02T06:21:54;100415.19;;;12.05;55.96
30021;BME280;16861;52.294;7.760;2023-05-02T06:24:21;100416.22;;;12.02;56.04
30021;BME280;16861;52.294;7.760;2023-05-02T06:26:47;100419.88;;;11.99;55.98
30021;BME280;16861;52.294;7.760;2023-05-02T06:29:14;100420.88;;;11.97;55.92
30021;BME280;16861;52.294;7.760;2023-05-02T06:31:40;100432.38;;;11.96;56.01
30021;BME280;16861;52.294;7.760;2023-05-02T06:34:07;100433.28;;;11.95;56.01
30021;BME280;16861;52.294;7.760;2023-05-02T06:36:33;100431.66;;;11.92;56.04
30021;BME280;16861;52.294;7.760;2023-05-02T06:38:59;100433.47;;;11.92;56.09
30021;BME280;16861;52.294;7.760;2023-05-02T06:41:26;100445.00;;;11.89;55.95
30021;BME280;16861;52.294;7.760;2023-05-02T06:43:53;100448.66;;;11.86;56.02
30021;BME280;16861;52.294;7.760;2023-05-02T06:46:19;100457.50;;;11.85;55.89
30021;BME280;16861;52.294;7.760;2023-05-02T06:48:46;100466.44;;;11.83;56.09
30021;BME280;16861;52.294;7.760;2023-05-02T06:51:13;100468.31;;;11.81;56.45
30021;BME280;16861;52.294;7.760;2023-05-02T06:53:40;100480.63;;;11.80;56.21
30021;BME280;16861;52.294;7.760;2023-05-02T06:56:06;100481.50;;;11.81;56.38
30021;BME280;16861;52.294;7.760;2023-05-02T06:58:33;100487.53;;;11.83;56.54
30021;BME280;16861;52.294;7.760;2023-05-02T07:00:59;100493.69;;;11.83;56.55
30021;BME280;16861;52.294;7.760;2023-05-02T07:03:26;100491.66;;;11.89;56.62
30021;BME280;16861;52.294;7.760;2023-05-02T07:05:53;100497.69;;;11.91;56.61
30021;BME280;16861;52.294;7.760;2023-05-02T07:08:19;100500.09;;;11.95;56.59
30021;BME280;16861;52.294;7.760;2023-05-02T07:10:47;100502.41;;;12.02;56.54
30021;BME280;16861;52.294;7.760;2023-05-02T07:13:14;100508.38;;;12.07;56.37
30021;BME280;16861;52.294;7.760;2023-05-02T07:15:41;100516.03;;;12.11;56.35
30021;BME280;16861;52.294;7.760;2023-05-02T07:18:08;100521.00;;;12.18;56.25
30021;BME280;16861;52.294;7.760;2023-05-02T07:20:34;100522.53;;;12.22;55.92
30021;BME280;16861;52.294;7.760;2023-05-02T07:23:01;100523.19;;;12.27;55.63
30021;BME280;16861;52.294;7.760;2023-05-02T07:25:27;100527.25;;;12.33;55.52
30021;BME280;16861;52.294;7.760;2023-05-02T07:27:54;100529.75;;;12.36;55.21
30021;BME280;16861;52.294;7.760;2023-05-02T07:30:21;100537.50;;;12.39;55.13
30021;BME280;16861;52.294;7.760;2023-05-02T07:32:47;100533.84;;;12.42;55.31
30021;BME280;16861;52.294;7.760;2023-05-02T07:35:13;100540.63;;;12.47;55.30
30021;BME280;16861;52.294;7.760;2023-05-02T07:37:40;100534.06;;;12.55;55.30
30021;BME280;16861;52.294;7.760;2023-05-02T07:40:07;100536.31;;;12.62;55.53
30021;BME280;16861;52.294;7.760;2023-05-02T07:42:34;100540.22;;;12.71;55.68
30021;BME280;16861;52.294;7.760;2023-05-02T07:45:01;100547.59;;;12.82;55.25
30021;BME280;16861;52.294;7.760;2023-05-02T07:47:28;100552.38;;;12.92;54.99
30021;BME280;16861;52.294;7.760;2023-05-02T07:49:55;100548.38;;;13.00;55.05
30021;BME280;16861;52.294;7.760;2023-05-02T07:52:21;100550.69;;;13.07;54.51
30021;BME280;16861;52.294;7.760;2023-05-02T07:54:48;100550.38;;;13.13;54.14
30021;BME280;16861;52.294;7.760;2023-05-02T07:57:16;100553.69;;;13.16;53.68
30021;BME280;16861;52.294;7.760;2023-05-02T07:59:42;100560.50;;;13.21;53.53
30021;BME280;16861;52.294;7.760;2023-05-02T08:02:09;100564.84;;;13.22;53.12
30021;BME280;16861;52.294;7.760;2023-05-02T17:35:55;100928.50;;;14.66;38.95
30021;BME280;16861;52.294;7.760;2023-05-02T17:38:21;100928.00;;;14.59;39.21
30021;BME280;16861;52.294;7.760;2023-05-02T17:40:47;100929.09;;;14.55;39.14
30021;BME280;16861;52.294;7.760;2023-05-02T17:43:14;100933.78;;;14.50;39.48
30021;BME280;16861;52.294;7.760;2023-05-02T17:45:42;100931.31;;;14.46;39.38
30021;BME280;16861;52.294;7.760;2023-05-02T17:50:38;100930.72;;;14.41;39.85
30021;BME280;16861;52.294;7.760;2023-05-02T17:53:06;100930.78;;;14.40;39.78
30021;BME280;16861;52.294;7.760;2023-05-02T17:55:36;100923.94;;;14.36;40.10
30021;BME280;16861;52.294;7.760;2023-05-02T17:58:03;100935.41;;;14.36;39.83
30021;BME280;16861;52.294;7.760;2023-05-02T18:00:29;100932.91;;;14.33;39.66
30021;BME280;16861;52.294;7.760;2023-05-02T18:02:56;100935.72;;;14.30;39.89
30021;BME280;16861;52.294;7.760;2023-05-02T18:05:23;100935.78;;;14.28;39.89
30021;BME280;16861;52.294;7.760;2023-05-02T18:07:53;100942.97;;;14.26;39.90
30021;BME280;16861;52.294;7.760;2023-05-02T18:10:20;100944.75;;;14.26;40.04
30021;BME280;16861;52.294;7.760;2023-05-02T18:12:47;100945.78;;;14.23;40.03
30021;BME280;16861;52.294;7.760;2023-05-02T18:15:14;100949.38;;;14.22;39.82
30021;BME280;16861;52.294;7.760;2023-05-02T18:17:40;100946.88;;;14.19;40.03
30021;BME280;16861;52.294;7.760;2023-05-02T18:20:07;100946.19;;;14.15;40.01
30021;BME280;16861;52.294;7.760;2023-05-02T18:22:35;100954.38;;;14.11;40.06
30021;BME280;16861;52.294;7.760;2023-05-02T18:25:02;100959.00;;;14.07;40.04
30021;BME280;16861;52.294;7.760;2023-05-02T18:27:29;100944.19;;;14.03;40.34
30021;BME280;16861;52.294;7.760;2023-05-02T18:29:56;100961.19;;;13.99;40.18
30021;BME280;16861;52.294;7.760;2023-05-02T18:32:22;100959.63;;;13.94;40.37
30021;BME280;16861;52.294;7.760;2023-05-02T18:34:51;100966.88;;;13.91;40.62
30021;BME280;16861;52.294;7.760;2023-05-02T18:37:17;100965.25;;;13.88;40.54
30021;BME280;16861;52.294;7.760;2023-05-02T18:39:43;100960.97;;;13.86;40.58
30021;BME280;16861;52.294;7.760;2023-05-02T18:42:10;100969.00;;;13.84;40.78
30021;BME280;16861;52.294;7.760;2023-05-02T18:44:38;100968.19;;;13.82;40.88
30021;BME280;16861;52.294;7.760;2023-05-02T18:47:04;100973.75;;;13.77;40.99
30021;BME280;16861;52.294;7.760;2023-05-02T18:49:31;100973.88;;;13.74;41.04
30021;BME280;16861;52.294;7.760;2023-05-02T18:51:58;100973.19;;;13.71;41.24
30021;BME280;16861;52.294;7.760;2023-05-02T18:54:24;100969.75;;;13.68;41.16
30021;BME280;16861;52.294;7.760;2023-05-02T18:56:53;100974.28;;;13.66;41.20
30021;BME280;16861;52.294;7.760;2023-05-02T18:59:19;100973.56;;;13.63;41.23
30021;BME280;16861;52.294;7.760;2023-05-02T19:01:46;100980.81;;;13.59;41.28
30021;BME280;16861;52.294;7.760;2023-05-02T19:04:15;100982.84;;;13.54;41.64
30021;BME280;16861;52.294;7.760;2023-05-02T19:06:42;100982.09;;;13.50;41.74
30021;BME280;16861;52.294;7.760;2023-05-02T19:09:09;100980.50;;;13.46;41.73
30021;BME280;16861;52.294;7.760;2023-05-02T19:11:39;100984.16;;;13.43;41.69
30021;BME280;16861;52.294;7.760;2023-05-02T19:14:05;100994.91;;;13.40;41.88
30021;BME280;16861;52.294;7.760;2023-05-02T19:16:36;100992.41;;;13.37;42.01
30021;BME280;16861;52.294;7.760;2023-05-02T19:19:05;100999.56;;;13.35;41.94
30021;BME280;16861;52.294;7.760;2023-05-02T19:21:32;100996.84;;;13.37;41.54
30021;BME280;16861;52.294;7.760;2023-05-02T19:23:59;100992.63;;;13.33;42.03
30021;BME280;16861;52.294;7.760;2023-05-02T19:26:27;100996.44;;;13.27;42.07
30021;BME280;16861;52.294;7.760;2023-05-02T19:28:53;101002.72;;;13.24;42.23
30021;BME280;16861;52.294;7.760;2023-05-02T19:31:20;101002.97;;;13.20;42.15
30021;BME280;16861;52.294;7.760;2023-05-02T19:33:46;101004.09;;;13.14;42.19
30021;BME280;16861;52.294;7.760;2023-05-02T19:36:18;101006.94;;;13.09;42.05
30021;BME280;16861;52.294;7.760;2023-05-02T19:38:49;101006.50;;;13.01;42.51
30021;BME280;16861;52.294;7.760;2023-05-02T19:41:17;101011.03;;;12.97;42.27
30021;BME280;16861;52.294;7.760;2023-05-02T19:43:43;101016.56;;;12.93;42.51
30021;BME280;16861;52.294;7.760;2023-05-02T19:46:10;101020.34;;;12.87;42.47
30021;BME280;16861;52.294;7.760;2023-05-02T19:48:37;101022.34;;;12.82;42.28
30021;BME280;16861;52.294;7.760;2023-05-02T19:51:03;101021.78;;;12.75;42.38
30021;BME280;16861;52.294;7.760;2023-05-02T19:53:31;101015.75;;;12.71;42.57
30021;BME280;16861;52.294;7.760;2023-05-02T19:55:59;101022.03;;;12.69;42.52
30021;BME280;16861;52.294;7.760;2023-05-02T19:58:27;101020.44;;;12.64;42.49
30021;BME280;16861;52.294;7.760;2023-05-02T20:00:54;101025.91;;;12.61;42.71
30021;BME280;16861;52.294;7.760;2023-05-02T20:03:21;101023.38;;;12.58;42.59
30021;BME280;16861;52.294;7.760;2023-05-02T20:05:48;101036.72;;;12.55;42.55
30021;BME280;16861;52.294;7.760;2023-05-02T20:08:15;101032.50;;;12.51;42.60
30021;BME280;16861;52.294;7.760;2023-05-02T20:10:43;101040.66;;;12.46;42.54
30021;BME280;16861;52.294;7.760;2023-05-02T20:13:10;101033.84;;;12.41;42.78
30021;BME280;16861;52.294;7.760;2023-05-02T20:15:37;101035.84;;;12.35;42.77
30021;BME280;16861;52.294;7.760;2023-05-02T20:18:04;101043.06;;;12.30;42.73
30021;BME280;16861;52.294;7.760;2023-05-02T20:20:30;101031.94;;;12.23;42.87
30021;BME280;16861;52.294;7.760;2023-05-02T20:22:57;101047.13;;;12.18;42.95
30021;BME280;16861;52.294;7.760;2023-05-02T20:25:24;101049.16;;;12.11;43.04
30021;BME280;16861;52.294;7.760;2023-05-02T20:27:51;101044.16;;;12.05;42.99
30021;BME280;16861;52.294;7.760;2023-05-02T20:30:18;101056.63;;;12.00;43.04
30021;BME280;16861;52.294;7.760;2023-05-02T20:32:45;101056.84;;;11.95;43.04
30021;BME280;16861;52.294;7.760;2023-05-02T20:35:11;101052.69;;;11.90;43.21
30021;BME280;16861;52.294;7.760;2023-05-02T20:37:38;101056.38;;;11.85;43.35
30021;BME280;16861;52.294;7.760;2023-05-02T20:40:05;101054.84;;;11.80;43.27
30021;BME280;16861;52.294;7.760;2023-05-02T20:42:36;101055.97;;;11.74;43.36
30021;BME280;16861;52.294;7.760;2023-05-02T20:45:04;101056.19;;;11.68;43.19
30021;BME280;16861;52.294;7.760;2023-05-02T20:47:34;101055.53;;;11.63;43.40
30021;BME280;16861;52.294;7.760;2023-05-02T20:50:00;101059.31;;;11.55;43.19
30021;BME280;16861;52.294;7.760;2023-05-02T20:52:28;101057.00;;;11.47;43.54
30021;BME280;16861;52.294;7.760;2023-05-02T20:54:55;101061.66;;;11.41;43.66
30021;BME280;16861;52.294;7.760;2023-05-02T20:57:21;101062.75;;;11.35;43.77
30021;BME280;16861;52.294;7.760;2023-05-02T20:59:49;101059.44;;;11.30;44.40
30021;BME280;16861;52.294;7.760;2023-05-02T21:02:16;101062.31;;;11.24;44.67
30021;BME280;16861;52.294;7.760;2023-05-02T21:04:43;101060.78;;;11.18;44.50
30021;BME280;16861;52.294;7.760;2023-05-02T21:07:09;101067.94;;;11.14;44.34
30021;BME280;16861;52.294;7.760;2023-05-02T21:09:36;101069.06;;;11.08;44.60
30021;BME280;16861;52.294;7.760;2023-05-02T21:12:06;101070.97;;;11.03;44.43
30021;BME280;16861;52.294;7.760;2023-05-02T21:14:33;101069.47;;;10.98;44.66
30021;BME280;16861;52.294;7.760;2023-05-02T21:16:59;101069.63;;;10.93;44.44
30021;BME280;16861;52.294;7.760;2023-05-02T21:19:26;101072.41;;;10.88;44.98
30021;BME280;16861;52.294;7.760;2023-05-02T21:21:52;101069.97;;;10.84;45.00
30021;BME280;16861;52.294;7.760;2023-05-02T21:24:19;101071.03;;;10.78;44.71
30021;BME280;16861;52.294;7.760;2023-05-02T21:26:46;101065.03;;;10.74;44.66
30021;BME280;16861;52.294;7.760;2023-05-02T21:29:12;101071.38;;;10.68;44.73
30021;BME280;16861;52.294;7.760;2023-05-02T21:31:40;101072.47;;;10.63;44.92
30021;BME280;16861;52.294;7.760;2023-05-02T21:34:06;101078.81;;;10.57;45.45
30021;BME280;16861;52.294;7.760;2023-05-02T21:36:33;101071.09;;;10.52;45.48
30021;BME280;16861;52.294;7.760;2023-05-02T21:39:00;101070.38;;;10.47;45.19
30021;BME280;16861;52.294;7.760;2023-05-02T21:41:26;101071.34;;;10.43;45.61
30021;BME280;16861;52.294;7.760;2023-05-02T21:43:53;101074.06;;;10.41;45.83
30021;BME280;16861;52.294;7.760;2023-05-02T21:46:19;101077.72;;;10.37;45.82
30021;BME280;16861;52.294;7.760;2023-05-02T21:48:46;101078.69;;;10.35;46.19
30021;BME280;16861;52.294;7.760;2023-05-02T21:51:13;101074.34;;;10.32;46.12
30021;BME280;16861;52.294;7.760;2023-05-02T21:53:40;101075.31;;;10.29;46.25
30021;BME280;16861;52.294;7.760;2023-05-02T21:56:08;101079.84;;;10.26;46.25
30021;BME280;16861;52.294;7.760;2023-05-02T21:58:34;101072.91;;;10.23;46.19
30021;BME280;16861;52.294;7.760;2023-05-02T22:01:01;101074.81;;;10.20;46.39
30021;BME280;16861;52.294;7.760;2023-05-02T22:03:28;101072.22;;;10.18;46.27
30021;BME280;16861;52.294;7.760;2023-05-02T22:05:56;101076.72;;;10.14;46.43
30021;BME280;16861;52.294;7.760;2023-05-02T22:08:23;101088.19;;;10.12;46.39
30021;BME280;16861;52.294;7.760;2023-05-02T22:10:50;101084.81;;;10.08;46.39
30021;BME280;16861;52.294;7.760;2023-05-02T22:13:16;101081.44;;;10.04;46.56
30021;BME280;16861;52.294;7.760;2023-05-02T22:15:45;101089.38;;;10.03;47.04
30021;BME280;16861;52.294;7.760;2023-05-02T22:18:15;101082.47;;;10.00;47.02
30021;BME280;16861;52.294;7.760;2023-05-02T22:20:43;101086.06;;;9.98;47.05
30021;BME280;16861;52.294;7.760;2023-05-02T22:23:10;101094.00;;;9.96;46.87
30021;BME280;16861;52.294;7.760;2023-05-02T22:25:39;101088.81;;;9.93;47.60
30021;BME280;16861;52.294;7.760;2023-05-02T22:28:06;101087.16;;;9.90;47.17
30021;BME280;16861;52.294;7.760;2023-05-02T22:30:37;101085.50;;;9.88;47.43
30021;BME280;16861;52.294;7.760;2023-05-02T22:33:04;101083.78;;;9.87;47.14
30021;BME280;16861;52.294;7.760;2023-05-02T22:35:31;101077.75;;;9.83;47.28
30021;BME280;16861;52.294;7.760;2023-05-02T22:37:59;101089.22;;;9.81;47.27
30021;BME280;16861;52.294;7.760;2023-05-02T22:40:28;101090.22;;;9.76;47.61
30021;BME280;16861;52.294;7.760;2023-05-02T22:42:57;101079.88;;;9.72;47.74
30021;BME280;16861;52.294;7.760;2023-05-02T22:45:24;101077.34;;;9.69;47.65